Time;durP1;ratioP1;P1;durP2;ratioP2;P2;SDS_P1;SDS_P2;PMS_P1;PMS_P2;Temp;Humidity;BMP_temperature;BMP_pressure;BME280_temperature;BME280_humidity;BME280_pressure;Samples;Min_cycle;Max_cycle;Signal;HPM_P1;HPM_P2
2022/10/01 00:01:52;;;;;;;;;;;;;;;;;;5077021;28;19917;-66
2022/10/01 00:04:17;;;;;;;;;;;;;;;;;;5076588;28;19935;-66
2022/10/01 00:06:42;;;;;;;;;;;;;;;;;;5067316;28;19936;-66
2022/10/01 00:09:08;;;;;;;;;;;;;;;;;;5075027;28;20257;-66
2022/10/01 00:11:33;;;;;;;;;;;;;;;;;;5071954;28;19921;-66
2022/10/01 00:13:58;;;;;;;;;;;;;;;;;;5073547;28;19916;-66
2022/10/01 00:16:23;;;;;;;;;;;;;;;;;;5084211;28;20848;-66
2022/10/01 00:18:48;;;;;;;;;;;;;;;;;;5077799;28;20326;-66
2022/10/01 00:21:13;;;;;;;;;;;;;;;;;;5075534;28;20364;-65
2022/10/01 00:23:38;;;;;;;;;;;;;;;;;;5071989;28;20391;-66
2022/10/01 00:26:03;;;;;;;;;;;;;;;;;;5073662;28;19917;-66
2022/10/01 00:28:28;;;;;;;;;;;;;;;;;;5071602;28;19912;-66
2022/10/01 00:30:53;;;;;;;;;;;;;;;;;;5073881;28;19919;-66
2022/10/01 00:33:19;;;;;;;;;;;;;;;;;;5074487;28;19909;-65
2022/10/01 00:35:44;;;;;;;;;;;;;;;;;;5074480;28;19999;-64
2022/10/01 00:38:10;;;;;;;;;;;;;;;;;;5069687;28;19999;-65
2022/10/01 00:40:35;;;;;;;;;;;;;;;;;;5072059;28;19947;-65
2022/10/01 00:43:00;;;;;;;;;;;;;;;;;;5067377;28;19912;-64
2022/10/01 00:45:25;;;;;;;;;;;;;;;;;;5055296;28;19916;-65
2022/10/01 00:47:50;;;;;;;;;;;;;;;;;;5057221;28;19919;-65
2022/10/01 00:50:15;;;;;;;;;;;;;;;;;;5067209;28;19962;-64
2022/10/01 00:52:40;;;;;;;;;;;;;;;;;;5086139;28;19912;-65
2022/10/01 00:55:05;;;;;;;;;;;;;;;;;;5081143;28;19916;-64
2022/10/01 00:57:30;;;;;;;;;;;;;;;;;;5083068;28;20365;-64
2022/10/01 00:59:56;;;;;;;;;;;;;;;;;;5075374;28;19912;-65
2022/10/01 01:02:21;;;;;;;;;;;;;;;;;;5081609;28;19916;-65
2022/10/01 01:04:47;;;;;;;;;;;;;;;;;;5093247;28;19970;-65
2022/10/01 01:07:12;;;;;;;;;;;;;;;;;;5082819;28;20363;-65
2022/10/01 01:09:37;;;;;;;;;;;;;;;;;;5086647;28;19911;-64
2022/10/01 01:12:02;;;;;;;;;;;;;;;;;;5091437;28;20103;-65
2022/10/01 01:14:27;;;;;;;;;;;;;;;;;;5074117;28;19922;-65
2022/10/01 01:16:53;;;;;;;;;;;;;;;;;;5075135;28;19917;-65
2022/10/01 01:19:19;;;;;;;;;;;;;;;;;;5092239;28;20367;-65
2022/10/01 01:21:44;;;;;;;;;;;;;;;;;;5072871;28;19981;-65
2022/10/01 01:24:09;;;;;;;;;;;;;;;;;;5088001;28;20007;-64
2022/10/01 01:26:35;;;;;;;;;;;;;;;;;;5079904;28;19915;-64
2022/10/01 01:29:00;;;;;;;;;;;;;;;;;;5078233;28;19919;-64
2022/10/01 01:31:25;;;;;;;;;;;;;;;;;;5075722;28;19916;-64
2022/10/01 01:33:50;;;;;;;;;;;;;;;;;;5073339;28;19955;-65
2022/10/01 01:36:15;;;;;;;;;;;;;;;;;;5072833;28;19920;-65
2022/10/01 01:38:41;;;;;;;;;;;;;;;;;;5070813;28;19943;-65
2022/10/01 01:41:06;;;;;;;;;;;;;;;;;;5073215;28;19961;-65
2022/10/01 01:43:32;;;;;;;;;;;;;;;;;;5072259;28;19991;-64
2022/10/01 01:45:58;;;;;;;;;;;;;;;;;;5072054;28;19947;-65
2022/10/01 01:48:23;;;;;;;;;;;;;;;;;;5072265;28;20023;-65
2022/10/01 01:50:48;;;;;;;;;;;;;;;;;;5071347;28;19999;-65
2022/10/01 01:53:14;;;;;;;;;;;;;;;;;;5073027;28;19962;-64
2022/10/01 01:55:39;;;;;;;;;;;;;;;;;;5073213;28;19962;-65
2022/10/01 01:58:04;;;;;;;;;;;;;;;;;;5074101;28;19962;-65
2022/10/01 02:00:29;;;;;;;;;;;;;;;;;;5074860;28;20035;-65
2022/10/01 02:02:54;;;;;;;;;;;;;;;;;;5076363;28;19912;-65
2022/10/01 02:05:19;;;;;;;;;;;;;;;;;;5086710;28;19921;-65
2022/10/01 02:07:44;;;;;;;;;;;;;;;;;;5081036;28;19920;-65
2022/10/01 02:10:10;;;;;;;;;;;;;;;;;;5077939;28;19912;-65
2022/10/01 02:12:36;;;;;;;;;;;;;;;;;;5089857;28;20121;-65
2022/10/01 02:15:01;;;;;;;;;;;;;;;;;;5078539;28;19923;-65
2022/10/01 02:17:26;;;;;;;;;;;;;;;;;;5081531;28;19912;-65
2022/10/01 02:19:52;;;;;;;;;;;;;;;;;;5077122;28;20439;-65
2022/10/01 02:22:17;;;;;;;;;;;;;;;;;;5080190;28;20479;-65
2022/10/01 02:24:42;;;;;;;;;;;;;;;;;;5074315;28;19916;-65
2022/10/01 02:27:07;;;;;;;;;;;;;;;;;;5074629;28;20323;-65
2022/10/01 02:29:32;;;;;;;;;;;;;;;;;;5072391;28;20269;-65
2022/10/01 02:31:57;;;;;;;;;;;;;;;;;;5086299;28;20365;-65
2022/10/01 02:34:22;;;;;;;;;;;;;;;;;;5091122;28;19916;-65
2022/10/01 02:36:47;;;;;;;;;;;;;;;;;;5089560;28;19920;-65
2022/10/01 02:39:13;;;;;;;;;;;;;;;;;;5079517;28;19916;-65
2022/10/01 02:41:38;;;;;;;;;;;;;;;;;;5076049;28;19943;-65
2022/10/01 02:44:03;;;;;;;;;;;;;;;;;;5085888;28;19912;-65
2022/10/01 02:46:28;;;;;;;;;;;;;;;;;;5073030;28;19908;-65
2022/10/01 02:48:53;;;;;;;;;;;;;;;;;;5070852;28;19917;-67
2022/10/01 02:51:19;;;;;;;;;;;;;;;;;;5071424;28;19913;-66
2022/10/01 02:53:44;;;;;;;;;;;;;;;;;;5074494;28;20014;-66
2022/10/01 02:56:09;;;;;;;;;;;;;;;;;;5088713;28;19923;-65
2022/10/01 02:58:35;;;;;;;;;;;;;;;;;;5083865;28;20050;-67
2022/10/01 03:01:00;;;;;;;;;;;;;;;;;;5086604;28;20637;-66
2022/10/01 03:03:26;;;;;;;;;;;;;;;;;;5087791;28;19912;-66
2022/10/01 03:05:51;;;;;;;;;;;;;;;;;;5090406;28;20311;-66
2022/10/01 03:08:16;;;;;;;;;;;;;;;;;;5090368;28;19916;-66
2022/10/01 03:10:41;;;;;;;;;;;;;;;;;;5070825;28;19913;-66
2022/10/01 03:13:06;;;;;;;;;;;;;;;;;;5086201;28;20016;-66
2022/10/01 03:15:31;;;;;;;;;;;;;;;;;;5075849;28;19916;-67
2022/10/01 03:17:57;;;;;;;;;;;;;;;;;;5090942;28;19918;-67
2022/10/01 03:20:22;;;;;;;;;;;;;;;;;;5077662;28;19916;-67
2022/10/01 03:22:47;;;;;;;;;;;;;;;;;;5086924;28;19912;-67
2022/10/01 03:25:12;;;;;;;;;;;;;;;;;;5090419;28;20010;-68
2022/10/01 03:27:37;;;;;;;;;;;;;;;;;;5088224;28;20006;-67
2022/10/01 03:30:02;;;;;;;;;;;;;;;;;;5078903;28;19923;-67
2022/10/01 03:32:28;;;;;;;;;;;;;;;;;;5073640;28;19973;-67
2022/10/01 03:34:53;;;;;;;;;;;;;;;;;;5089666;28;20399;-67
2022/10/01 03:37:18;;;;;;;;;;;;;;;;;;5081425;28;19917;-66
2022/10/01 03:39:43;;;;;;;;;;;;;;;;;;5082749;28;19942;-67
2022/10/01 03:42:08;;;;;;;;;;;;;;;;;;5085536;28;20053;-68
2022/10/01 03:44:34;;;;;;;;;;;;;;;;;;5086861;28;19912;-67
2022/10/01 03:46:59;;;;;;;;;;;;;;;;;;5086195;28;19912;-67
2022/10/01 03:49:24;;;;;;;;;;;;;;;;;;5068683;28;19921;-67
2022/10/01 03:51:49;;;;;;;;;;;;;;;;;;5090058;28;20351;-67
2022/10/01 03:54:14;;;;;;;;;;;;;;;;;;5090055;28;20337;-68
2022/10/01 03:56:42;;;;;;;;;;;;;;;;;;5090047;28;20326;-67
2022/10/01 03:59:07;;;;;;;;;;;;;;;;;;5080476;28;19956;-68
2022/10/01 04:01:32;;;;;;;;;;;;;;;;;;5075374;28;20325;-68
2022/10/01 04:03:58;;;;;;;;;;;;;;;;;;5091774;28;20333;-68
2022/10/01 04:06:23;;;;;;;;;;;;;;;;;;5073378;28;19962;-67
2022/10/01 04:08:48;;;;;;;;;;;;;;;;;;5071615;28;19923;-67
2022/10/01 04:11:13;;;;;;;;;;;;;;;;;;5069116;28;19916;-68
2022/10/01 04:13:38;;;;;;;;;;;;;;;;;;5071535;28;20358;-67
2022/10/01 04:16:03;;;;;;;;;;;;;;;;;;5070017;28;20367;-67
2022/10/01 04:18:29;;;;;;;;;;;;;;;;;;5071565;28;19916;-67
2022/10/01 04:20:54;;;;;;;;;;;;;;;;;;5070327;28;19912;-67
2022/10/01 04:23:19;;;;;;;;;;;;;;;;;;5072221;28;19917;-66
2022/10/01 04:25:44;;;;;;;;;;;;;;;;;;5080751;28;19908;-67
2022/10/01 04:28:09;;;;;;;;;;;;;;;;;;5089836;28;19912;-67
2022/10/01 04:30:34;;;;;;;;;;;;;;;;;;5082240;28;19970;-67
2022/10/01 04:32:59;;;;;;;;;;;;;;;;;;5091026;28;19957;-67
2022/10/01 04:35:24;;;;;;;;;;;;;;;;;;5092802;28;19916;-66
2022/10/01 04:37:50;;;;;;;;;;;;;;;;;;5083933;28;19916;-67
2022/10/01 04:40:15;;;;;;;;;;;;;;;;;;5073222;28;19920;-67
2022/10/01 04:42:43;;;;;;;;;;;;;;;;;;5074562;28;19915;-66
2022/10/01 04:45:08;;;;;;;;;;;;;;;;;;5073757;28;20566;-66
2022/10/01 04:47:33;;;;;;;;;;;;;;;;;;5085704;28;19999;-65
2022/10/01 04:49:58;;;;;;;;;;;;;;;;;;5084909;28;19991;-66
2022/10/01 04:52:23;;;;;;;;;;;;;;;;;;5087730;28;19983;-66
2022/10/01 04:54:51;;;;;;;;;;;;;;;;;;5069310;28;19959;-66
2022/10/01 04:57:16;;;;;;;;;;;;;;;;;;5084279;28;19909;-66
2022/10/01 04:59:41;;;;;;;;;;;;;;;;;;5084098;28;19912;-66
2022/10/01 05:02:06;;;;;;;;;;;;;;;;;;5065391;28;20360;-66
2022/10/01 05:04:31;;;;;;;;;;;;;;;;;;5086728;28;19938;-66
2022/10/01 05:06:56;;;;;;;;;;;;;;;;;;5070226;28;19908;-66
2022/10/01 05:09:21;;;;;;;;;;;;;;;;;;5072898;28;19948;-66
2022/10/01 05:11:50;;;;;;;;;;;;;;;;;;5079365;28;19912;-66
2022/10/01 05:14:15;;;;;;;;;;;;;;;;;;5073864;28;20312;-66
2022/10/01 05:16:41;;;;;;;;;;;;;;;;;;5077641;28;19931;-66
2022/10/01 05:19:06;;;;;;;;;;;;;;;;;;5083981;28;19917;-66
2022/10/01 05:21:31;;;;;;;;;;;;;;;;;;5063503;28;19916;-66
2022/10/01 05:23:56;;;;;;;;;;;;;;;;;;5086125;28;19927;-66
2022/10/01 05:26:22;;;;;;;;;;;;;;;;;;5074368;28;19912;-66
2022/10/01 05:28:47;;;;;;;;;;;;;;;;;;5074715;28;20046;-66
2022/10/01 05:31:12;;;;;;;;;;;;;;;;;;5064252;28;19913;-66
2022/10/01 05:33:38;;;;;;;;;;;;;;;;;;5053502;28;19912;-66
2022/10/01 05:36:03;;;;;;;;;;;;;;;;;;5063040;28;19931;-66
2022/10/01 05:38:29;;;;;;;;;;;;;;;;;;5073754;28;19963;-67
2022/10/01 05:40:54;;;;;;;;;;;;;;;;;;5073662;28;19913;-66
2022/10/01 05:43:19;;;;;;;;;;;;;;;;;;5073295;28;20432;-67
2022/10/01 05:45:44;;;;;;;;;;;;;;;;;;5071470;28;19913;-67
2022/10/01 05:48:09;;;;;;;;;;;;;;;;;;5073339;28;20372;-66
2022/10/01 05:50:34;;;;;;;;;;;;;;;;;;5072516;28;20348;-66
2022/10/01 05:52:59;;;;;;;;;;;;;;;;;;5073349;28;19916;-66
2022/10/01 05:55:24;;;;;;;;;;;;;;;;;;5071734;28;19917;-66
2022/10/01 05:57:50;;;;;;;;;;;;;;;;;;5072946;28;19909;-65
2022/10/01 06:00:15;;;;;;;;;;;;;;;;;;5072455;28;19953;-66
2022/10/01 06:02:40;;;;;;;;;;;;;;;;;;5072849;28;20047;-66
2022/10/01 06:05:05;;;;;;;;;;;;;;;;;;5072808;28;19908;-66
2022/10/01 06:07:30;;;;;;;;;;;;;;;;;;5071886;28;19917;-66
2022/10/01 06:09:55;;;;;;;;;;;;;;;;;;5072980;28;19908;-65
2022/10/01 06:12:20;;;;;;;;;;;;;;;;;;5072986;28;19912;-66
2022/10/01 06:14:45;;;;;;;;;;;;;;;;;;5072575;28;19917;-66
2022/10/01 06:17:10;;;;;;;;;;;;;;;;;;5070806;28;19967;-66
2022/10/01 06:19:36;;;;;;;;;;;;;;;;;;5072905;28;19961;-67
2022/10/01 06:22:01;;;;;;;;;;;;;;;;;;5072516;28;19955;-67
2022/10/01 06:24:26;;;;;;;;;;;;;;;;;;5068563;28;19913;-66
2022/10/01 06:26:51;;;;;;;;;;;;;;;;;;5075873;28;19919;-67
2022/10/01 06:29:16;;;;;;;;;;;;;;;;;;5080150;28;19912;-66
2022/10/01 06:31:41;;;;;;;;;;;;;;;;;;5072680;28;19916;-68
2022/10/01 06:34:06;;;;;;;;;;;;;;;;;;5080390;28;19919;-67
2022/10/01 06:36:32;;;;;;;;;;;;;;;;;;5072217;28;19960;-67
2022/10/01 06:38:57;;;;;;;;;;;;;;;;;;5068392;28;19970;-67
2022/10/01 06:41:22;;;;;;;;;;;;;;;;;;5090607;28;19916;-67
2022/10/01 06:43:47;;;;;;;;;;;;;;;;;;5085358;28;20315;-68
2022/10/01 06:46:12;;;;;;;;;;;;;;;;;;5057419;28;19913;-68
2022/10/01 06:48:37;;;;;;;;;;;;;;;;;;5068318;28;20061;-68
2022/10/01 06:51:03;;;;;;;;;;;;;;;;;;5072129;28;19908;-68
2022/10/01 06:53:28;;;;;;;;;;;;;;;;;;5051935;28;19914;-68
2022/10/01 06:55:53;;;;;;;;;;;;;;;;;;5051612;28;20356;-67
2022/10/01 06:58:19;;;;;;;;;;;;;;;;;;5069149;28;19995;-67
2022/10/01 07:00:44;;;;;;;;;;;;;;;;;;5062887;28;19936;-68
2022/10/01 07:03:10;;;;;;;;;;;;;;;;;;5055664;28;20007;-67
2022/10/01 07:05:35;;;;;;;;;;;;;;;;;;5053119;28;20446;-68
2022/10/01 07:08:00;;;;;;;;;;;;;;;;;;5051916;28;20408;-67
2022/10/01 07:10:25;;;;;;;;;;;;;;;;;;5051690;28;19995;-68
2022/10/01 07:12:50;;;;;;;;;;;;;;;;;;5068001;28;19952;-67
2022/10/01 07:15:15;;;;;;;;;;;;;;;;;;5051527;28;19970;-68
2022/10/01 07:17:40;;;;;;;;;;;;;;;;;;5059694;28;19912;-67
2022/10/01 07:20:06;;;;;;;;;;;;;;;;;;5051315;28;19909;-67
2022/10/01 07:22:31;;;;;;;;;;;;;;;;;;5059869;28;19959;-67
2022/10/01 07:24:56;;;;;;;;;;;;;;;;;;5058710;28;19909;-67
2022/10/01 07:27:21;;;;;;;;;;;;;;;;;;5051832;28;19917;-67
2022/10/01 07:29:46;;;;;;;;;;;;;;;;;;5051899;28;19908;-67
2022/10/01 07:32:11;;;;;;;;;;;;;;;;;;5065674;28;19980;-67
2022/10/01 07:34:37;;;;;;;;;;;;;;;;;;5050905;28;20003;-67
2022/10/01 07:37:02;;;;;;;;;;;;;;;;;;5051516;28;20316;-67
2022/10/01 07:39:27;;;;;;;;;;;;;;;;;;5051086;28;19913;-66
2022/10/01 07:41:52;;;;;;;;;;;;;;;;;;5052776;28;19968;-67
2022/10/01 07:44:17;;;;;;;;;;;;;;;;;;5063377;28;19913;-66
2022/10/01 07:46:42;;;;;;;;;;;;;;;;;;5051211;28;19916;-67
2022/10/01 07:49:07;;;;;;;;;;;;;;;;;;5069309;28;19917;-67
2022/10/01 07:51:32;;;;;;;;;;;;;;;;;;5056421;28;20674;-67
2022/10/01 07:53:58;;;;;;;;;;;;;;;;;;5050772;28;20000;-67
2022/10/01 07:56:23;;;;;;;;;;;;;;;;;;5051183;28;20103;-67
2022/10/01 07:58:48;;;;;;;;;;;;;;;;;;5054418;28;19913;-67
2022/10/01 08:01:13;;;;;;;;;;;;;;;;;;5054967;28;19912;-68
2022/10/01 08:03:38;;;;;;;;;;;;;;;;;;5054833;28;20447;-67
2022/10/01 08:06:05;;;;;;;;;;;;;;;;;;5055047;28;20384;-67
2022/10/01 08:08:30;;;;;;;;;;;;;;;;;;5055103;28;19943;-67
2022/10/01 08:10:55;;;;;;;;;;;;;;;;;;5054940;28;19912;-67
2022/10/01 08:13:23;;;;;;;;;;;;;;;;;;5064244;28;19965;-67
2022/10/01 08:15:55;;;;;;;;;;;;;;;;;;5069514;28;19923;-67
2022/10/01 08:18:20;;;;;;;;;;;;;;;;;;5072235;28;19917;-67
2022/10/01 08:20:45;;;;;;;;;;;;;;;;;;5074037;28;20049;-66
2022/10/01 08:23:10;;;;;;;;;;;;;;;;;;5071687;28;19908;-67
2022/10/01 08:25:35;;;;;;;;;;;;;;;;;;5069108;28;19912;-67
2022/10/01 08:28:00;;;;;;;;;;;;;;;;;;5089651;28;20360;-67
2022/10/01 08:30:26;;;;;;;;;;;;;;;;;;5093258;28;20355;-67
2022/10/01 08:32:51;;;;;;;;;;;;;;;;;;5072279;28;20369;-67
2022/10/01 08:35:16;;;;;;;;;;;;;;;;;;5072078;28;20413;-67
2022/10/01 08:37:41;;;;;;;;;;;;;;;;;;5078161;28;20368;-68
2022/10/01 08:40:06;;;;;;;;;;;;;;;;;;5088405;28;20390;-67
2022/10/01 08:42:32;;;;;;;;;;;;;;;;;;5081087;28;20372;-67
2022/10/01 08:45:00;;;;;;;;;;;;;;;;;;5070054;28;19920;-67
2022/10/01 08:47:25;;;;;;;;;;;;;;;;;;5055147;28;19923;-67
2022/10/01 08:49:50;;;;;;;;;;;;;;;;;;5058315;28;19916;-67
2022/10/01 08:52:15;;;;;;;;;;;;;;;;;;5057767;28;19916;-67
2022/10/01 08:54:40;;;;;;;;;;;;;;;;;;5054025;28;19916;-67
2022/10/01 08:57:05;;;;;;;;;;;;;;;;;;5064546;28;19962;-67
2022/10/01 08:59:31;;;;;;;;;;;;;;;;;;5067033;28;19912;-67
2022/10/01 09:01:57;;;;;;;;;;;;;;;;;;5060821;28;20019;-67
2022/10/01 09:04:23;;;;;;;;;;;;;;;;;;5067499;28;20449;-68
2022/10/01 09:06:48;;;;;;;;;;;;;;;;;;5069693;28;20003;-67
2022/10/01 09:09:13;;;;;;;;;;;;;;;;;;5067276;28;20324;-67
2022/10/01 09:11:38;;;;;;;;;;;;;;;;;;5072341;28;20281;-68
2022/10/01 09:14:03;;;;;;;;;;;;;;;;;;5073970;28;19909;-67
2022/10/01 09:16:28;;;;;;;;;;;;;;;;;;5066272;28;19917;-67
2022/10/01 09:18:53;;;;;;;;;;;;;;;;;;5068333;28;19916;-67
2022/10/01 09:21:21;;;;;;;;;;;;;;;;;;5073809;28;20205;-68
2022/10/01 09:23:47;;;;;;;;;;;;;;;;;;5073512;28;19909;-67
2022/10/01 09:26:12;;;;;;;;;;;;;;;;;;5073789;28;19919;-67
2022/10/01 09:28:37;;;;;;;;;;;;;;;;;;5071101;28;20369;-68
2022/10/01 09:31:02;;;;;;;;;;;;;;;;;;5073336;28;19955;-67
2022/10/01 09:33:27;;;;;;;;;;;;;;;;;;5071322;28;19912;-67
2022/10/01 09:35:53;;;;;;;;;;;;;;;;;;5073223;28;19913;-67
2022/10/01 09:38:18;;;;;;;;;;;;;;;;;;5073387;28;20368;-68
2022/10/01 09:40:43;;;;;;;;;;;;;;;;;;5071074;28;19940;-68
2022/10/01 09:43:09;;;;;;;;;;;;;;;;;;5071568;28;19909;-68
2022/10/01 09:45:34;;;;;;;;;;;;;;;;;;5063676;28;19916;-68
2022/10/01 09:47:59;;;;;;;;;;;;;;;;;;5069500;28;20003;-68
2022/10/01 09:50:24;;;;;;;;;;;;;;;;;;5073364;28;20257;-67
2022/10/01 09:52:49;;;;;;;;;;;;;;;;;;5070677;28;20373;-68
2022/10/01 09:55:15;;;;;;;;;;;;;;;;;;5073161;28;19920;-68
2022/10/01 09:57:40;;;;;;;;;;;;;;;;;;5073153;28;19991;-67
2022/10/01 10:00:08;;;;;;;;;;;;;;;;;;5073086;28;20319;-68
2022/10/01 10:02:33;;;;;;;;;;;;;;;;;;5070533;28;19971;-68
2022/10/01 10:04:59;;;;;;;;;;;;;;;;;;5072609;28;19908;-67
2022/10/01 10:07:24;;;;;;;;;;;;;;;;;;5072873;28;19954;-67
2022/10/01 10:09:49;;;;;;;;;;;;;;;;;;5072815;28;20429;-67
2022/10/01 10:12:14;;;;;;;;;;;;;;;;;;5069969;28;19920;-68
2022/10/01 10:14:40;;;;;;;;;;;;;;;;;;5072526;28;20003;-68
2022/10/01 10:17:05;;;;;;;;;;;;;;;;;;5068667;28;19967;-67
2022/10/01 10:19:31;;;;;;;;;;;;;;;;;;5072119;28;19909;-66
2022/10/01 10:21:59;;;;;;;;;;;;;;;;;;5071434;28;20387;-67
2022/10/01 10:24:25;;;;;;;;;;;;;;;;;;5070298;28;20007;-67
2022/10/01 10:26:50;;;;;;;;;;;;;;;;;;5072659;28;20318;-66
2022/10/01 10:29:15;;;;;;;;;;;;;;;;;;5072339;28;19944;-66
2022/10/01 10:31:40;;;;;;;;;;;;;;;;;;5070147;28;20027;-66
2022/10/01 10:34:06;;;;;;;;;;;;;;;;;;5067908;28;19918;-66
2022/10/01 10:36:31;;;;;;;;;;;;;;;;;;5070179;28;19920;-66
2022/10/01 10:38:56;;;;;;;;;;;;;;;;;;5068190;28;19998;-67
2022/10/01 10:41:25;;;;;;;;;;;;;;;;;;5052423;28;19909;-66
2022/10/01 10:43:50;;;;;;;;;;;;;;;;;;5052249;28;20293;-66
2022/10/01 10:46:15;;;;;;;;;;;;;;;;;;5059956;28;20490;-66
2022/10/01 10:48:43;;;;;;;;;;;;;;;;;;5067106;28;20438;-66
2022/10/01 10:51:09;;;;;;;;;;;;;;;;;;5067398;28;19916;-66
2022/10/01 10:53:34;;;;;;;;;;;;;;;;;;5067294;28;20403;-66
2022/10/01 10:55:59;;;;;;;;;;;;;;;;;;5063112;28;20426;-67
2022/10/01 10:58:25;;;;;;;;;;;;;;;;;;5068926;28;19920;-67
2022/10/01 11:00:50;;;;;;;;;;;;;;;;;;5064624;28;19912;-66
2022/10/01 11:03:15;;;;;;;;;;;;;;;;;;5067451;28;19920;-67
2022/10/01 11:05:40;;;;;;;;;;;;;;;;;;5064309;28;19917;-67
2022/10/01 11:08:05;;;;;;;;;;;;;;;;;;5062720;28;19959;-67
2022/10/01 11:10:30;;;;;;;;;;;;;;;;;;5068092;28;19920;-66
2022/10/01 11:12:56;;;;;;;;;;;;;;;;;;5050448;28;20026;-67
2022/10/01 11:15:21;;;;;;;;;;;;;;;;;;5049171;28;20007;-66
2022/10/01 11:17:46;;;;;;;;;;;;;;;;;;5063082;28;20349;-67
2022/10/01 11:20:11;;;;;;;;;;;;;;;;;;5060822;28;19916;-66
2022/10/01 11:22:36;;;;;;;;;;;;;;;;;;5059168;28;19917;-66
2022/10/01 11:25:01;;;;;;;;;;;;;;;;;;5048308;28;19920;-66
2022/10/01 11:27:27;;;;;;;;;;;;;;;;;;5057820;28;19916;-66
2022/10/01 11:29:52;;;;;;;;;;;;;;;;;;5068001;28;20508;-67
2022/10/01 11:32:18;;;;;;;;;;;;;;;;;;5062032;28;19916;-66
2022/10/01 11:34:44;;;;;;;;;;;;;;;;;;5072598;28;20391;-66
2022/10/01 11:37:09;;;;;;;;;;;;;;;;;;5062547;28;20423;-67
2022/10/01 11:39:35;;;;;;;;;;;;;;;;;;5069834;28;19916;-66
2022/10/01 11:42:00;;;;;;;;;;;;;;;;;;5058289;28;19923;-66
2022/10/01 11:44:25;;;;;;;;;;;;;;;;;;5068228;28;20004;-66
2022/10/01 11:46:52;;;;;;;;;;;;;;;;;;5060699;28;19970;-66
2022/10/01 11:49:17;;;;;;;;;;;;;;;;;;5070187;28;19920;-66
2022/10/01 11:51:42;;;;;;;;;;;;;;;;;;5058574;28;19917;-66
2022/10/01 11:54:07;;;;;;;;;;;;;;;;;;5064340;28;19923;-67
2022/10/01 11:59:16;;;;;;;;;;;;;;;;;;5070922;28;19923;-67
2022/10/01 12:01:41;;;;;;;;;;;;;;;;;;5068456;28;19917;-66
2022/10/01 12:04:06;;;;;;;;;;;;;;;;;;5068535;28;19917;-66
2022/10/01 12:06:31;;;;;;;;;;;;;;;;;;5063958;28;20376;-66
2022/10/01 12:08:57;;;;;;;;;;;;;;;;;;5072839;28;19921;-66
2022/10/01 12:11:22;;;;;;;;;;;;;;;;;;5068296;28;20031;-67
2022/10/01 12:13:54;;;;;;;;;;;;;;;;;;5064517;28;19938;-66
2022/10/01 12:16:19;;;;;;;;;;;;;;;;;;5058707;28;19931;-65
2022/10/01 12:18:44;;;;;;;;;;;;;;;;;;5062747;28;19916;-67
2022/10/01 12:21:09;;;;;;;;;;;;;;;;;;5066085;28;19966;-66
2022/10/01 12:23:34;;;;;;;;;;;;;;;;;;5074366;28;19951;-66
2022/10/01 12:25:59;;;;;;;;;;;;;;;;;;5063347;28;19916;-66
2022/10/01 12:28:24;;;;;;;;;;;;;;;;;;5068556;28;19974;-66
2022/10/01 12:30:50;;;;;;;;;;;;;;;;;;5065864;28;19916;-67
2022/10/01 12:33:15;;;;;;;;;;;;;;;;;;5073659;28;19921;-68
2022/10/01 12:35:40;;;;;;;;;;;;;;;;;;5068632;28;19921;-66
2022/10/01 12:38:07;;;;;;;;;;;;;;;;;;5059118;28;19917;-67
2022/10/01 12:40:32;;;;;;;;;;;;;;;;;;5051757;28;19921;-67
2022/10/01 12:42:57;;;;;;;;;;;;;;;;;;5059416;28;19923;-67
2022/10/01 12:45:22;;;;;;;;;;;;;;;;;;5061079;28;19921;-68
2022/10/01 12:47:48;;;;;;;;;;;;;;;;;;5068202;28;19916;-67
2022/10/01 12:50:13;;;;;;;;;;;;;;;;;;5067548;28;19921;-67
2022/10/01 12:52:38;;;;;;;;;;;;;;;;;;5074195;28;19916;-68
2022/10/01 12:55:03;;;;;;;;;;;;;;;;;;5065650;28;19966;-68
2022/10/01 12:57:31;;;;;;;;;;;;;;;;;;5068925;28;19912;-67
2022/10/01 12:59:57;;;;;;;;;;;;;;;;;;5068039;28;19916;-68
2022/10/01 13:02:22;;;;;;;;;;;;;;;;;;5063482;28;19916;-68
2022/10/01 13:04:48;;;;;;;;;;;;;;;;;;5070473;28;19916;-67
2022/10/01 13:07:13;;;;;;;;;;;;;;;;;;5064647;28;20296;-67
2022/10/01 13:09:38;;;;;;;;;;;;;;;;;;5082064;28;19938;-67
2022/10/01 13:12:03;;;;;;;;;;;;;;;;;;5081082;28;19921;-67
2022/10/01 13:14:28;;;;;;;;;;;;;;;;;;5066707;28;19920;-67
2022/10/01 13:16:53;;;;;;;;;;;;;;;;;;5062781;28;19978;-68
2022/10/01 13:19:18;;;;;;;;;;;;;;;;;;5076551;28;19962;-67
2022/10/01 13:21:43;;;;;;;;;;;;;;;;;;5082140;28;19970;-67
2022/10/01 13:24:09;;;;;;;;;;;;;;;;;;5067673;28;19921;-67
2022/10/01 13:26:34;;;;;;;;;;;;;;;;;;5070117;28;19917;-67
2022/10/01 13:29:00;;;;;;;;;;;;;;;;;;5050854;28;19935;-66
2022/10/01 13:31:26;;;;;;;;;;;;;;;;;;5064078;28;19916;-67
2022/10/01 13:33:51;;;;;;;;;;;;;;;;;;5063090;28;20054;-67
2022/10/01 13:36:18;;;;;;;;;;;;;;;;;;5066179;28;20023;-66
2022/10/01 13:38:43;;;;;;;;;;;;;;;;;;5070695;28;19916;-67
2022/10/01 13:41:09;;;;;;;;;;;;;;;;;;5065239;28;19924;-67
2022/10/01 13:43:34;;;;;;;;;;;;;;;;;;5067695;28;20101;-67
2022/10/01 13:46:00;;;;;;;;;;;;;;;;;;5063392;28;20012;-66
2022/10/01 13:48:28;;;;;;;;;;;;;;;;;;5067063;28;20376;-66
2022/10/01 13:50:54;;;;;;;;;;;;;;;;;;5068869;28;20380;-66
2022/10/01 13:53:19;;;;;;;;;;;;;;;;;;5068252;28;19927;-66
2022/10/01 13:55:44;;;;;;;;;;;;;;;;;;5053146;28;19924;-67
2022/10/01 13:58:09;;;;;;;;;;;;;;;;;;5070511;28;19913;-66
2022/10/01 14:00:34;;;;;;;;;;;;;;;;;;5054892;28;20368;-66
2022/10/01 14:02:59;;;;;;;;;;;;;;;;;;5064852;28;20415;-67
2022/10/01 14:05:25;;;;;;;;;;;;;;;;;;5067866;28;19916;-66
2022/10/01 14:07:50;;;;;;;;;;;;;;;;;;5061718;28;19926;-67
2022/10/01 14:10:15;;;;;;;;;;;;;;;;;;5070070;28;19939;-66
2022/10/01 14:18:08;;;;;;;;;;;;;;;;;;5060378;28;19924;-67
2022/10/01 14:20:33;;;;;;;;;;;;;;;;;;5069213;28;19932;-66
2022/10/01 14:22:59;;;;;;;;;;;;;;;;;;5075037;28;19923;-66
2022/10/01 14:25:24;;;;;;;;;;;;;;;;;;5058951;28;20280;-66
2022/10/01 14:27:49;;;;;;;;;;;;;;;;;;5065865;28;19938;-66
2022/10/01 14:30:14;;;;;;;;;;;;;;;;;;5067732;28;19962;-66
2022/10/01 14:32:39;;;;;;;;;;;;;;;;;;5078131;28;20332;-67
2022/10/01 14:35:04;;;;;;;;;;;;;;;;;;5059253;28;19917;-67
2022/10/01 14:37:29;;;;;;;;;;;;;;;;;;5065990;28;19916;-66
2022/10/01 14:39:55;;;;;;;;;;;;;;;;;;5066480;28;20396;-66
2022/10/01 14:42:20;;;;;;;;;;;;;;;;;;5069567;28;20376;-66
2022/10/01 14:44:45;;;;;;;;;;;;;;;;;;5065047;28;19966;-67
2022/10/01 14:47:10;;;;;;;;;;;;;;;;;;5062948;28;20392;-67
2022/10/01 14:49:35;;;;;;;;;;;;;;;;;;5064909;28;19916;-67
2022/10/01 14:52:00;;;;;;;;;;;;;;;;;;5067676;28;19916;-66
2022/10/01 14:54:25;;;;;;;;;;;;;;;;;;5058019;28;20251;-67
2022/10/01 14:56:51;;;;;;;;;;;;;;;;;;5057238;28;20029;-66
2022/10/01 14:59:16;;;;;;;;;;;;;;;;;;5068654;28;19962;-67
2022/10/01 15:01:41;;;;;;;;;;;;;;;;;;5055797;28;19921;-67
2022/10/01 15:04:06;;;;;;;;;;;;;;;;;;5055578;28;19944;-67
2022/10/01 15:06:31;;;;;;;;;;;;;;;;;;5063776;28;19916;-67
2022/10/01 15:08:57;;;;;;;;;;;;;;;;;;5068252;28;19973;-67
2022/10/01 15:11:22;;;;;;;;;;;;;;;;;;5051697;28;20003;-66
2022/10/01 15:13:47;;;;;;;;;;;;;;;;;;5051707;28;20356;-66
2022/10/01 15:16:12;;;;;;;;;;;;;;;;;;5064282;28;19921;-67
2022/10/01 15:18:40;;;;;;;;;;;;;;;;;;5066752;28;20284;-67
2022/10/01 15:21:06;;;;;;;;;;;;;;;;;;5062245;28;19916;-67
2022/10/01 15:23:31;;;;;;;;;;;;;;;;;;5066816;28;19920;-67
2022/10/01 15:25:56;;;;;;;;;;;;;;;;;;5065468;28;19916;-67
2022/10/01 15:28:23;;;;;;;;;;;;;;;;;;5067502;28;19912;-67
2022/10/01 15:30:48;;;;;;;;;;;;;;;;;;5064581;28;20383;-67
2022/10/01 15:33:14;;;;;;;;;;;;;;;;;;5055978;28;20011;-67
2022/10/01 15:35:39;;;;;;;;;;;;;;;;;;5059091;28;19923;-67
2022/10/01 15:38:04;;;;;;;;;;;;;;;;;;5066403;28;20003;-67
2022/10/01 15:40:29;;;;;;;;;;;;;;;;;;5065970;28;19958;-67
2022/10/01 15:42:54;;;;;;;;;;;;;;;;;;5062618;28;19929;-67
2022/10/01 15:45:20;;;;;;;;;;;;;;;;;;5048845;28;19923;-67
2022/10/01 15:47:45;;;;;;;;;;;;;;;;;;5066439;28;19917;-67
2022/10/01 15:50:11;;;;;;;;;;;;;;;;;;5065507;28;19985;-67
2022/10/01 15:52:48;;;;;;;;;;;;;;;;;;5065482;28;20322;-67
2022/10/01 15:55:16;;;;;;;;;;;;;;;;;;5048259;28;19956;-67
2022/10/01 15:57:41;;;;;;;;;;;;;;;;;;5063864;28;20019;-67
2022/10/01 16:00:07;;;;;;;;;;;;;;;;;;5063725;28;20015;-67
2022/10/01 16:02:32;;;;;;;;;;;;;;;;;;5063987;28;19972;-67
2022/10/01 16:04:57;;;;;;;;;;;;;;;;;;5056073;28;19917;-67
2022/10/01 16:07:22;;;;;;;;;;;;;;;;;;5055416;28;19924;-67
2022/10/01 16:09:47;;;;;;;;;;;;;;;;;;5056034;28;19928;-67
2022/10/01 16:12:12;;;;;;;;;;;;;;;;;;5061489;28;19920;-67
2022/10/01 16:14:46;;;;;;;;;;;;;;;;;;5062393;28;19927;-67
2022/10/01 16:17:11;;;;;;;;;;;;;;;;;;5051997;28;19927;-67
2022/10/01 16:19:36;;;;;;;;;;;;;;;;;;5060700;28;19917;-66
2022/10/01 16:22:01;;;;;;;;;;;;;;;;;;5069324;28;19955;-66
2022/10/01 16:24:27;;;;;;;;;;;;;;;;;;5054967;28;19917;-67
2022/10/01 16:26:53;;;;;;;;;;;;;;;;;;5056470;28;19928;-67
2022/10/01 16:29:19;;;;;;;;;;;;;;;;;;5052808;28;20274;-67
2022/10/01 16:31:44;;;;;;;;;;;;;;;;;;5069691;28;19923;-67
2022/10/01 16:34:09;;;;;;;;;;;;;;;;;;5076795;28;20330;-66
2022/10/01 16:36:34;;;;;;;;;;;;;;;;;;5061387;28;19974;-66
2022/10/01 16:38:59;;;;;;;;;;;;;;;;;;5071539;28;19995;-67
2022/10/01 16:41:24;;;;;;;;;;;;;;;;;;5063358;28;21814;-67